sensor_id;sensor_type;location;lat;lon;timestamp;temperature;humidity
51839;DHT22;37886;53.174;6.368;2022-11-15T00:00:33;7.40;99.90
51839;DHT22;37886;53.174;6.368;2022-11-15T00:02:59;7.30;99.90
51839;DHT22;37886;53.174;6.368;2022-11-15T00:05:24;7.20;99.90
51839;DHT22;37886;53.174;6.368;2022-11-15T00:07:50;7.00;99.90
51839;DHT22;37886;53.174;6.368;2022-11-15T00:10:16;6.90;99.90
51839;DHT22;37886;53.174;6.368;2022-11-15T00:12:42;6.70;99.90
51839;DHT22;37886;53.174;6.368;2022-11-15T00:15:07;6.60;99.90
51839;DHT22;37886;53.174;6.368;2022-11-15T00:17:33;6.50;99.90
51839;DHT22;37886;53.174;6.368;2022-11-15T00:19:59;6.50;99.90
51839;DHT22;37886;53.174;6.368;2022-11-15T00:22:25;6.50;99.90
51839;DHT22;37886;53.174;6.368;2022-11-15T00:24:56;6.40;99.90
51839;DHT22;37886;53.174;6.368;2022-11-15T00:27:21;6.50;99.90
51839;DHT22;37886;53.174;6.368;2022-11-15T00:29:47;6.50;99.90
51839;DHT22;37886;53.174;6.368;2022-11-15T00:32:13;6.60;99.90
51839;DHT22;37886;53.174;6.368;2022-11-15T00:34:38;6.60;99.90
51839;DHT22;37886;53.174;6.368;2022-11-15T00:37:04;6.70;99.90
51839;DHT22;37886;53.174;6.368;2022-11-15T00:39:31;6.90;99.90
51839;DHT22;37886;53.174;6.368;2022-11-15T00:41:56;6.90;99.90
51839;DHT22;37886;53.174;6.368;2022-11-15T00:44:22;7.00;99.90
51839;DHT22;37886;53.174;6.368;2022-11-15T00:46:48;7.10;99.90
51839;DHT22;37886;53.174;6.368;2022-11-15T00:49:13;7.20;99.90
51839;DHT22;37886;53.174;6.368;2022-11-15T00:51:39;7.20;99.90
51839;DHT22;37886;53.174;6.368;2022-11-15T00:54:05;7.30;99.90
51839;DHT22;37886;53.174;6.368;2022-11-15T00:56:30;7.30;99.90
51839;DHT22;37886;53.174;6.368;2022-11-15T00:58:56;7.30;99.90
51839;DHT22;37886;53.174;6.368;2022-11-15T01:01:22;7.30;99.90
51839;DHT22;37886;53.174;6.368;2022-11-15T01:03:47;7.30;99.90
51839;DHT22;37886;53.174;6.368;2022-11-15T01:06:13;7.30;99.90
51839;DHT22;37886;53.174;6.368;2022-11-15T01:08:40;7.40;99.90
51839;DHT22;37886;53.174;6.368;2022-11-15T01:11:11;7.40;99.90
51839;DHT22;37886;53.174;6.368;2022-11-15T01:13:38;7.40;99.90
51839;DHT22;37886;53.174;6.368;2022-11-15T01:16:16;7.40;99.90
51839;DHT22;37886;53.174;6.368;2022-11-15T01:18:43;7.50;99.90
51839;DHT22;37886;53.174;6.368;2022-11-15T01:21:14;7.50;99.90
51839;DHT22;37886;53.174;6.368;2022-11-15T01:23:40;7.50;99.90
51839;DHT22;37886;53.174;6.368;2022-11-15T01:26:07;7.50;99.90
51839;DHT22;37886;53.174;6.368;2022-11-15T01:28:36;7.40;99.90
51839;DHT22;37886;53.174;6.368;2022-11-15T01:31:04;7.40;99.90
51839;DHT22;37886;53.174;6.368;2022-11-15T01:33:30;7.40;99.90
51839;DHT22;37886;53.174;6.368;2022-11-15T01:35:56;7.40;99.90
51839;DHT22;37886;53.174;6.368;2022-11-15T01:38:22;7.30;99.90
51839;DHT22;37886;53.174;6.368;2022-11-15T01:40:48;7.30;99.90
51839;DHT22;37886;53.174;6.368;2022-11-15T01:46:21;7.20;99.90
51839;DHT22;37886;53.174;6.368;2022-11-15T01:48:50;7.20;99.90
51839;DHT22;37886;53.174;6.368;2022-11-15T01:51:18;7.20;99.90
51839;DHT22;37886;53.174;6.368;2022-11-15T01:53:47;7.10;99.90
51839;DHT22;37886;53.174;6.368;2022-11-15T01:56:19;7.10;99.90
51839;DHT22;37886;53.174;6.368;2022-11-15T01:58:46;7.10;99.90
51839;DHT22;37886;53.174;6.368;2022-11-15T02:01:15;7.10;99.90
51839;DHT22;37886;53.174;6.368;2022-11-15T02:03:50;7.10;99.90
51839;DHT22;37886;53.174;6.368;2022-11-15T02:06:18;7.10;99.90
51839;DHT22;37886;53.174;6.368;2022-11-15T02:08:44;7.10;99.90
51839;DHT22;37886;53.174;6.368;2022-11-15T02:11:10;7.20;99.90
51839;DHT22;37886;53.174;6.368;2022-11-15T02:13:36;7.10;99.90
51839;DHT22;37886;53.174;6.368;2022-11-15T02:16:09;7.10;99.90
51839;DHT22;37886;53.174;6.368;2022-11-15T02:18:44;7.10;99.90
51839;DHT22;37886;53.174;6.368;2022-11-15T02:32:25;7.10;99.90
51839;DHT22;37886;53.174;6.368;2022-11-15T02:34:55;7.00;99.90
51839;DHT22;37886;53.174;6.368;2022-11-15T02:37:31;7.10;99.90
51839;DHT22;37886;53.174;6.368;2022-11-15T02:40:07;7.10;99.90
51839;DHT22;37886;53.174;6.368;2022-11-15T02:42:43;7.10;99.90
51839;DHT22;37886;53.174;6.368;2022-11-15T02:45:32;7.00;99.90
51839;DHT22;37886;53.174;6.368;2022-11-15T02:48:01;7.00;99.90
51839;DHT22;37886;53.174;6.368;2022-11-15T02:50:30;7.00;99.90
51839;DHT22;37886;53.174;6.368;2022-11-15T02:52:57;7.10;99.90
51839;DHT22;37886;53.174;6.368;2022-11-15T02:58:27;7.00;99.90
51839;DHT22;37886;53.174;6.368;2022-11-15T03:03:38;7.10;99.90
51839;DHT22;37886;53.174;6.368;2022-11-15T03:11:29;7.00;99.90
51839;DHT22;37886;53.174;6.368;2022-11-15T03:19:22;7.10;99.90
51839;DHT22;37886;53.174;6.368;2022-11-15T03:21:51;7.10;99.90
51839;DHT22;37886;53.174;6.368;2022-11-15T03:24:19;7.10;99.90
51839;DHT22;37886;53.174;6.368;2022-11-15T03:26:48;7.10;99.90
51839;DHT22;37886;53.174;6.368;2022-11-15T03:29:19;7.10;99.90
51839;DHT22;37886;53.174;6.368;2022-11-15T03:31:52;7.20;99.90
51839;DHT22;37886;53.174;6.368;2022-11-15T03:34:29;7.20;99.90
51839;DHT22;37886;53.174;6.368;2022-11-15T03:36:57;7.20;99.90
51839;DHT22;37886;53.174;6.368;2022-11-15T03:39:24;7.20;99.90
51839;DHT22;37886;53.174;6.368;2022-11-15T03:42:21;7.20;99.90
51839;DHT22;37886;53.174;6.368;2022-11-15T03:47:31;7.20;99.90
51839;DHT22;37886;53.174;6.368;2022-11-15T03:50:11;7.20;99.90
51839;DHT22;37886;53.174;6.368;2022-11-15T03:52:39;7.30;99.90
51839;DHT22;37886;53.174;6.368;2022-11-15T03:55:09;7.30;99.90
51839;DHT22;37886;53.174;6.368;2022-11-15T03:57:35;7.30;99.90
51839;DHT22;37886;53.174;6.368;2022-11-15T04:00:02;7.30;99.90
51839;DHT22;37886;53.174;6.368;2022-11-15T04:02:28;7.40;99.90
51839;DHT22;37886;53.174;6.368;2022-11-15T04:04:54;7.40;99.90
51839;DHT22;37886;53.174;6.368;2022-11-15T04:07:19;7.40;99.90
51839;DHT22;37886;53.174;6.368;2022-11-15T04:09:45;7.40;99.90
51839;DHT22;37886;53.174;6.368;2022-11-15T04:12:33;7.50;99.90
51839;DHT22;37886;53.174;6.368;2022-11-15T04:15:01;7.50;99.90
51839;DHT22;37886;53.174;6.368;2022-11-15T04:17:53;7.60;99.90
51839;DHT22;37886;53.174;6.368;2022-11-15T04:20:22;7.60;99.90
51839;DHT22;37886;53.174;6.368;2022-11-15T04:23:19;7.60;99.90
51839;DHT22;37886;53.174;6.368;2022-11-15T04:26:11;7.60;99.90
51839;DHT22;37886;53.174;6.368;2022-11-15T04:28:38;7.60;99.90
51839;DHT22;37886;53.174;6.368;2022-11-15T04:31:23;7.60;99.90
51839;DHT22;37886;53.174;6.368;2022-11-15T04:33:49;7.70;99.90
51839;DHT22;37886;53.174;6.368;2022-11-15T04:36:15;7.60;99.90
51839;DHT22;37886;53.174;6.368;2022-11-15T04:38:59;7.70;99.90
51839;DHT22;37886;53.174;6.368;2022-11-15T04:41:24;7.70;99.90
51839;DHT22;37886;53.174;6.368;2022-11-15T04:43:50;7.70;99.90
51839;DHT22;37886;53.174;6.368;2022-11-15T04:46:16;7.70;99.90
51839;DHT22;37886;53.174;6.368;2022-11-15T04:48:42;7.80;99.90
51839;DHT22;37886;53.174;6.368;2022-11-15T04:51:08;7.80;99.90
51839;DHT22;37886;53.174;6.368;2022-11-15T04:53:33;7.80;99.90
51839;DHT22;37886;53.174;6.368;2022-11-15T04:55:59;7.80;99.90
51839;DHT22;37886;53.174;6.368;2022-11-15T04:58:25;7.90;99.90
51839;DHT22;37886;53.174;6.368;2022-11-15T05:00:50;7.90;99.90
51839;DHT22;37886;53.174;6.368;2022-11-15T05:03:16;7.90;99.90
51839;DHT22;37886;53.174;6.368;2022-11-15T05:06:00;7.90;99.90
51839;DHT22;37886;53.174;6.368;2022-11-15T05:08:26;7.90;99.90
51839;DHT22;37886;53.174;6.368;2022-11-15T05:10:51;7.90;99.90
51839;DHT22;37886;53.174;6.368;2022-11-15T05:13:17;7.90;99.90
51839;DHT22;37886;53.174;6.368;2022-11-15T05:15:43;8.00;99.90
51839;DHT22;37886;53.174;6.368;2022-11-15T05:18:09;8.00;99.90
51839;DHT22;37886;53.174;6.368;2022-11-15T05:20:35;8.00;99.90
51839;DHT22;37886;53.174;6.368;2022-11-15T05:23:01;8.10;99.90
51839;DHT22;37886;53.174;6.368;2022-11-15T05:25:26;8.10;99.90
51839;DHT22;37886;53.174;6.368;2022-11-15T05:27:52;8.20;99.90
51839;DHT22;37886;53.174;6.368;2022-11-15T05:30:18;8.20;99.90
51839;DHT22;37886;53.174;6.368;2022-11-15T05:32:44;8.20;99.90
51839;DHT22;37886;53.174;6.368;2022-11-15T05:35:21;8.20;99.90
51839;DHT22;37886;53.174;6.368;2022-11-15T05:37:50;8.20;99.90
51839;DHT22;37886;53.174;6.368;2022-11-15T05:40:16;8.30;99.90
51839;DHT22;37886;53.174;6.368;2022-11-15T05:42:41;8.30;99.90
51839;DHT22;37886;53.174;6.368;2022-11-15T05:45:08;8.40;99.90
51839;DHT22;37886;53.174;6.368;2022-11-15T05:47:36;8.40;99.90
51839;DHT22;37886;53.174;6.368;2022-11-15T05:50:03;8.40;99.90
51839;DHT22;37886;53.174;6.368;2022-11-15T05:52:31;8.40;99.90
51839;DHT22;37886;53.174;6.368;2022-11-15T05:54:59;8.50;99.90
51839;DHT22;37886;53.174;6.368;2022-11-15T05:57:25;8.50;99.90
51839;DHT22;37886;53.174;6.368;2022-11-15T05:59:51;8.50;99.90
51839;DHT22;37886;53.174;6.368;2022-11-15T06:02:17;8.50;99.90
51839;DHT22;37886;53.174;6.368;2022-11-15T06:04:42;8.60;99.90
51839;DHT22;37886;53.174;6.368;2022-11-15T06:07:08;8.60;99.90
51839;DHT22;37886;53.174;6.368;2022-11-15T06:09:34;8.60;99.90
51839;DHT22;37886;53.174;6.368;2022-11-15T06:11:59;8.60;99.90
51839;DHT22;37886;53.174;6.368;2022-11-15T06:14:28;8.70;99.90
51839;DHT22;37886;53.174;6.368;2022-11-15T06:16:53;8.70;99.90
51839;DHT22;37886;53.174;6.368;2022-11-15T06:19:19;8.70;99.90
51839;DHT22;37886;53.174;6.368;2022-11-15T06:21:45;8.80;99.90
51839;DHT22;37886;53.174;6.368;2022-11-15T06:24:10;8.80;99.90
51839;DHT22;37886;53.174;6.368;2022-11-15T06:26:36;8.90;99.90
51839;DHT22;37886;53.174;6.368;2022-11-15T06:29:03;8.90;99.90
51839;DHT22;37886;53.174;6.368;2022-11-15T06:31:29;9.00;99.90
51839;DHT22;37886;53.174;6.368;2022-11-15T06:33:55;9.00;99.90
51839;DHT22;37886;53.174;6.368;2022-11-15T06:36:21;9.00;99.90
51839;DHT22;37886;53.174;6.368;2022-11-15T06:38:50;9.00;99.90
51839;DHT22;37886;53.174;6.368;2022-11-15T06:41:16;9.10;99.90
51839;DHT22;37886;53.174;6.368;2022-11-15T06:43:43;9.10;99.90
51839;DHT22;37886;53.174;6.368;2022-11-15T06:46:08;9.20;99.90
51839;DHT22;37886;53.174;6.368;2022-11-15T06:48:35;9.20;99.90
51839;DHT22;37886;53.174;6.368;2022-11-15T06:51:03;9.20;99.90
51839;DHT22;37886;53.174;6.368;2022-11-15T06:53:30;9.30;99.90
51839;DHT22;37886;53.174;6.368;2022-11-15T06:56:00;9.20;99.90
51839;DHT22;37886;53.174;6.368;2022-11-15T06:58:27;9.30;99.90
51839;DHT22;37886;53.174;6.368;2022-11-15T07:00:52;9.30;99.90
51839;DHT22;37886;53.174;6.368;2022-11-15T07:03:18;9.40;99.90
51839;DHT22;37886;53.174;6.368;2022-11-15T07:05:51;9.40;99.90
51839;DHT22;37886;53.174;6.368;2022-11-15T07:08:18;9.40;99.90
51839;DHT22;37886;53.174;6.368;2022-11-15T07:10:44;9.40;99.90
51839;DHT22;37886;53.174;6.368;2022-11-15T07:13:10;9.50;99.90
51839;DHT22;37886;53.174;6.368;2022-11-15T07:15:36;9.50;99.90
51839;DHT22;37886;53.174;6.368;2022-11-15T07:18:01;9.50;99.90
51839;DHT22;37886;53.174;6.368;2022-11-15T07:20:27;9.50;99.90
51839;DHT22;37886;53.174;6.368;2022-11-15T07:23:03;9.50;99.90
51839;DHT22;37886;53.174;6.368;2022-11-15T07:25:29;9.60;99.90
51839;DHT22;37886;53.174;6.368;2022-11-15T07:27:56;9.60;99.90
51839;DHT22;37886;53.174;6.368;2022-11-15T07:30:22;9.60;99.90
51839;DHT22;37886;53.174;6.368;2022-11-15T07:32:55;9.70;99.90
51839;DHT22;37886;53.174;6.368;2022-11-15T07:35:21;9.70;99.90
51839;DHT22;37886;53.174;6.368;2022-11-15T07:38:00;9.80;99.90
51839;DHT22;37886;53.174;6.368;2022-11-15T07:40:30;9.80;99.90
51839;DHT22;37886;53.174;6.368;2022-11-15T07:43:01;9.80;99.90
51839;DHT22;37886;53.174;6.368;2022-11-15T07:45:27;9.90;99.90
51839;DHT22;37886;53.174;6.368;2022-11-15T07:47:53;9.90;99.90
51839;DHT22;37886;53.174;6.368;2022-11-15T07:50:21;9.90;99.90
51839;DHT22;37886;53.174;6.368;2022-11-15T07:52:47;9.90;99.90
51839;DHT22;37886;53.174;6.368;2022-11-15T07:55:13;10.00;99.90
51839;DHT22;37886;53.174;6.368;2022-11-15T07:57:39;10.00;99.90
51839;DHT22;37886;53.174;6.368;2022-11-15T08:00:05;10.00;99.90
51839;DHT22;37886;53.174;6.368;2022-11-15T08:02:31;10.00;99.90
51839;DHT22;37886;53.174;6.368;2022-11-15T08:04:57;10.10;99.90
51839;DHT22;37886;53.174;6.368;2022-11-15T08:07:23;10.10;99.90
51839;DHT22;37886;53.174;6.368;2022-11-15T08:09:48;10.10;99.90
51839;DHT22;37886;53.174;6.368;2022-11-15T08:12:14;10.20;99.90
51839;DHT22;37886;53.174;6.368;2022-11-15T08:14:40;10.20;99.90
51839;DHT22;37886;53.174;6.368;2022-11-15T08:17:06;10.30;99.90
51839;DHT22;37886;53.174;6.368;2022-11-15T08:19:31;10.30;99.90
51839;DHT22;37886;53.174;6.368;2022-11-15T08:21:57;10.40;99.90
51839;DHT22;37886;53.174;6.368;2022-11-15T08:24:23;10.40;99.90
51839;DHT22;37886;53.174;6.368;2022-11-15T08:26:48;10.50;99.90
51839;DHT22;37886;53.174;6.368;2022-11-15T08:29:14;10.50;99.90
51839;DHT22;37886;53.174;6.368;2022-11-15T08:31:40;10.60;99.90
51839;DHT22;37886;53.174;6.368;2022-11-15T08:34:06;10.70;99.90
51839;DHT22;37886;53.174;6.368;2022-11-15T08:36:32;10.80;99.90
51839;DHT22;37886;53.174;6.368;2022-11-15T08:38:57;10.80;99.90
51839;DHT22;37886;53.174;6.368;2022-11-15T08:41:37;10.80;99.90
51839;DHT22;37886;53.174;6.368;2022-11-15T08:44:02;10.90;99.90
51839;DHT22;37886;53.174;6.368;2022-11-15T08:46:28;10.90;99.90
51839;DHT22;37886;53.174;6.368;2022-11-15T08:48:54;10.90;99.90
51839;DHT22;37886;53.174;6.368;2022-11-15T08:51:20;11.00;99.90
51839;DHT22;37886;53.174;6.368;2022-11-15T08:53:45;11.00;99.90
51839;DHT22;37886;53.174;6.368;2022-11-15T08:56:13;11.10;99.90
51839;DHT22;37886;53.174;6.368;2022-11-15T08:58:39;11.00;99.90
51839;DHT22;37886;53.174;6.368;2022-11-15T09:01:05;11.00;99.90
51839;DHT22;37886;53.174;6.368;2022-11-15T09:03:31;11.00;99.90
51839;DHT22;37886;53.174;6.368;2022-11-15T09:05:59;11.00;99.90
51839;DHT22;37886;53.174;6.368;2022-11-15T09:08:26;11.00;99.90
51839;DHT22;37886;53.174;6.368;2022-11-15T09:10:54;11.00;99.90
51839;DHT22;37886;53.174;6.368;2022-11-15T09:13:20;10.90;99.90
51839;DHT22;37886;53.174;6.368;2022-11-15T09:15:46;11.00;99.90
51839;DHT22;37886;53.174;6.368;2022-11-15T09:18:11;11.00;99.90
51839;DHT22;37886;53.174;6.368;2022-11-15T09:20:37;11.10;99.90
51839;DHT22;37886;53.174;6.368;2022-11-15T09:23:04;11.20;99.90
51839;DHT22;37886;53.174;6.368;2022-11-15T09:25:30;11.20;99.90
51839;DHT22;37886;53.174;6.368;2022-11-15T09:27:56;11.20;99.90
51839;DHT22;37886;53.174;6.368;2022-11-15T09:30:23;11.20;99.90
51839;DHT22;37886;53.174;6.368;2022-11-15T09:32:49;11.20;99.90
51839;DHT22;37886;53.174;6.368;2022-11-15T09:35:15;11.20;99.90
51839;DHT22;37886;53.174;6.368;2022-11-15T09:37:40;11.20;99.90
51839;DHT22;37886;53.174;6.368;2022-11-15T09:40:11;11.20;99.90
51839;DHT22;37886;53.174;6.368;2022-11-15T09:45:37;11.30;99.90
51839;DHT22;37886;53.174;6.368;2022-11-15T09:48:42;11.30;99.90
51839;DHT22;37886;53.174;6.368;2022-11-15T09:51:36;11.40;99.90
51839;DHT22;37886;53.174;6.368;2022-11-15T09:54:10;11.50;99.90
51839;DHT22;37886;53.174;6.368;2022-11-15T09:56:39;11.50;99.90
51839;DHT22;37886;53.174;6.368;2022-11-15T10:04:26;11.70;99.90
51839;DHT22;37886;53.174;6.368;2022-11-15T10:07:12;11.60;99.90
51839;DHT22;37886;53.174;6.368;2022-11-15T10:12:10;11.60;99.90
51839;DHT22;37886;53.174;6.368;2022-11-15T10:14:37;11.60;99.90
51839;DHT22;37886;53.174;6.368;2022-11-15T10:17:15;11.70;99.90
51839;DHT22;37886;53.174;6.368;2022-11-15T10:22:50;11.80;99.90
51839;DHT22;37886;53.174;6.368;2022-11-15T10:30:39;11.90;99.90
51839;DHT22;37886;53.174;6.368;2022-11-15T10:35:40;12.10;99.90
51839;DHT22;37886;53.174;6.368;2022-11-15T10:38:09;12.20;99.90
51839;DHT22;37886;53.174;6.368;2022-11-15T10:40:35;12.30;99.90
51839;DHT22;37886;53.174;6.368;2022-11-15T10:43:15;12.20;99.90
51839;DHT22;37886;53.174;6.368;2022-11-15T10:45:41;12.20;99.90
51839;DHT22;37886;53.174;6.368;2022-11-15T10:50:47;12.10;99.90
51839;DHT22;37886;53.174;6.368;2022-11-15T10:55:47;12.20;99.90
51839;DHT22;37886;53.174;6.368;2022-11-15T10:58:26;12.30;99.90
51839;DHT22;37886;53.174;6.368;2022-11-15T11:00:55;12.40;99.90
51839;DHT22;37886;53.174;6.368;2022-11-15T11:03:29;12.40;99.90
51839;DHT22;37886;53.174;6.368;2022-11-15T11:06:16;12.40;99.90
51839;DHT22;37886;53.174;6.368;2022-11-15T11:09:20;12.40;99.90
51839;DHT22;37886;53.174;6.368;2022-11-15T11:11:49;12.40;99.90
51839;DHT22;37886;53.174;6.368;2022-11-15T11:14:21;12.40;99.90
51839;DHT22;37886;53.174;6.368;2022-11-15T11:17:15;12.40;99.90
51839;DHT22;37886;53.174;6.368;2022-11-15T11:20:08;12.30;99.90
51839;DHT22;37886;53.174;6.368;2022-11-15T11:25:43;12.60;99.90
51839;DHT22;37886;53.174;6.368;2022-11-15T11:33:18;12.60;99.90
51839;DHT22;37886;53.174;6.368;2022-11-15T11:38:43;12.60;99.90
51839;DHT22;37886;53.174;6.368;2022-11-15T11:44:19;12.70;99.90
51839;DHT22;37886;53.174;6.368;2022-11-15T11:49:46;12.70;99.90
51839;DHT22;37886;53.174;6.368;2022-11-15T12:00:43;12.70;99.90
51839;DHT22;37886;53.174;6.368;2022-11-15T12:03:27;12.60;99.90
51839;DHT22;37886;53.174;6.368;2022-11-15T12:06:20;12.70;99.90
51839;DHT22;37886;53.174;6.368;2022-11-15T12:14:44;13.00;99.90
51839;DHT22;37886;53.174;6.368;2022-11-15T12:17:11;13.10;99.90
51839;DHT22;37886;53.174;6.368;2022-11-15T12:19:38;12.80;99.90
51839;DHT22;37886;53.174;6.368;2022-11-15T12:22:22;12.80;99.90
51839;DHT22;37886;53.174;6.368;2022-11-15T12:25:00;12.90;99.90
51839;DHT22;37886;53.174;6.368;2022-11-15T12:27:33;12.80;99.90
51839;DHT22;37886;53.174;6.368;2022-11-15T12:30:07;12.80;99.90
51839;DHT22;37886;53.174;6.368;2022-11-15T12:32:37;12.80;99.90
51839;DHT22;37886;53.174;6.368;2022-11-15T12:35:06;12.80;99.90
51839;DHT22;37886;53.174;6.368;2022-11-15T12:37:48;13.10;99.90
51839;DHT22;37886;53.174;6.368;2022-11-15T12:40:22;13.10;99.90
51839;DHT22;37886;53.174;6.368;2022-11-15T12:45:43;13.40;99.90
51839;DHT22;37886;53.174;6.368;2022-11-15T12:56:17;13.40;99.90
51839;DHT22;37886;53.174;6.368;2022-11-15T12:58:56;13.70;99.90
51839;DHT22;37886;53.174;6.368;2022-11-15T13:17:22;13.10;99.90
51839;DHT22;37886;53.174;6.368;2022-11-15T13:22:59;13.20;99.90
51839;DHT22;37886;53.174;6.368;2022-11-15T13:31:03;13.20;99.90
51839;DHT22;37886;53.174;6.368;2022-11-15T13:33:39;13.10;99.90
51839;DHT22;37886;53.174;6.368;2022-11-15T13:36:25;12.80;99.90
51839;DHT22;37886;53.174;6.368;2022-11-15T13:39:11;12.80;99.90
51839;DHT22;37886;53.174;6.368;2022-11-15T13:41:46;12.90;99.90
51839;DHT22;37886;53.174;6.368;2022-11-15T13:44:20;12.90;99.90
51839;DHT22;37886;53.174;6.368;2022-11-15T13:46:46;12.80;99.90
51839;DHT22;37886;53.174;6.368;2022-11-15T13:49:12;12.80;99.90
51839;DHT22;37886;53.174;6.368;2022-11-15T13:51:39;12.80;99.90
51839;DHT22;37886;53.174;6.368;2022-11-15T13:57:12;12.70;99.90
51839;DHT22;37886;53.174;6.368;2022-11-15T13:59:52;12.50;99.90
51839;DHT22;37886;53.174;6.368;2022-11-15T14:02:32;12.60;99.90
51839;DHT22;37886;53.174;6.368;2022-11-15T14:05:14;12.60;99.90
51839;DHT22;37886;53.174;6.368;2022-11-15T14:07:56;12.40;99.90
51839;DHT22;37886;53.174;6.368;2022-11-15T14:10:33;12.40;99.90
51839;DHT22;37886;53.174;6.368;2022-11-15T14:12:59;12.30;99.90
51839;DHT22;37886;53.174;6.368;2022-11-15T14:15:34;12.30;99.90
51839;DHT22;37886;53.174;6.368;2022-11-15T14:18:00;12.30;99.90
51839;DHT22;37886;53.174;6.368;2022-11-15T14:23:26;12.20;99.90
51839;DHT22;37886;53.174;6.368;2022-11-15T14:25:57;12.10;99.90
51839;DHT22;37886;53.174;6.368;2022-11-15T14:30:49;12.00;99.90
51839;DHT22;37886;53.174;6.368;2022-11-15T14:33:22;12.00;99.90
51839;DHT22;37886;53.174;6.368;2022-11-15T14:35:49;11.90;99.90
51839;DHT22;37886;53.174;6.368;2022-11-15T14:38:14;11.80;99.90
51839;DHT22;37886;53.174;6.368;2022-11-15T14:40:41;11.70;99.90
51839;DHT22;37886;53.174;6.368;2022-11-15T14:43:10;11.70;99.90
51839;DHT22;37886;53.174;6.368;2022-11-15T14:45:36;11.70;99.90
51839;DHT22;37886;53.174;6.368;2022-11-15T14:48:02;11.60;99.90
51839;DHT22;37886;53.174;6.368;2022-11-15T14:50:28;11.60;99.90
51839;DHT22;37886;53.174;6.368;2022-11-15T14:52:54;11.50;99.90
51839;DHT22;37886;53.174;6.368;2022-11-15T14:55:28;11.50;99.90
51839;DHT22;37886;53.174;6.368;2022-11-15T14:57:56;11.50;99.90
51839;DHT22;37886;53.174;6.368;2022-11-15T15:00:22;11.40;99.90
51839;DHT22;37886;53.174;6.368;2022-11-15T15:02:53;11.30;99.90
51839;DHT22;37886;53.174;6.368;2022-11-15T15:05:23;11.20;99.90
51839;DHT22;37886;53.174;6.368;2022-11-15T15:07:49;11.10;99.90
51839;DHT22;37886;53.174;6.368;2022-11-15T15:10:16;11.00;99.90
51839;DHT22;37886;53.174;6.368;2022-11-15T15:12:42;11.00;99.90
51839;DHT22;37886;53.174;6.368;2022-11-15T15:15:19;10.90;99.90
51839;DHT22;37886;53.174;6.368;2022-11-15T15:17:45;10.80;99.90
51839;DHT22;37886;53.174;6.368;2022-11-15T15:20:11;10.80;99.90
51839;DHT22;37886;53.174;6.368;2022-11-15T15:22:37;10.70;99.90
51839;DHT22;37886;53.174;6.368;2022-11-15T15:25:30;10.60;99.90
51839;DHT22;37886;53.174;6.368;2022-11-15T15:27:56;10.50;99.90
51839;DHT22;37886;53.174;6.368;2022-11-15T15:30:23;10.50;99.90
51839;DHT22;37886;53.174;6.368;2022-11-15T15:32:49;10.40;99.90
51839;DHT22;37886;53.174;6.368;2022-11-15T15:35:16;10.40;99.90
51839;DHT22;37886;53.174;6.368;2022-11-15T15:37:43;10.40;99.90
51839;DHT22;37886;53.174;6.368;2022-11-15T15:40:20;10.40;99.90
51839;DHT22;37886;53.174;6.368;2022-11-15T15:42:47;10.50;99.90
51839;DHT22;37886;53.174;6.368;2022-11-15T15:45:14;10.50;99.90
51839;DHT22;37886;53.174;6.368;2022-11-15T15:47:43;10.50;99.90
51839;DHT22;37886;53.174;6.368;2022-11-15T15:52:52;10.40;99.90
51839;DHT22;37886;53.174;6.368;2022-11-15T15:55:19;10.30;99.90
51839;DHT22;37886;53.174;6.368;2022-11-15T15:57:45;10.20;99.90
51839;DHT22;37886;53.174;6.368;2022-11-15T16:00:12;10.10;99.90
51839;DHT22;37886;53.174;6.368;2022-11-15T16:02:39;10.10;99.90
51839;DHT22;37886;53.174;6.368;2022-11-15T16:05:05;10.10;99.90
51839;DHT22;37886;53.174;6.368;2022-11-15T16:07:33;10.10;99.90
51839;DHT22;37886;53.174;6.368;2022-11-15T16:09:59;10.00;99.90
51839;DHT22;37886;53.174;6.368;2022-11-15T16:12:26;10.00;99.90
51839;DHT22;37886;53.174;6.368;2022-11-15T16:14:52;9.90;99.90
51839;DHT22;37886;53.174;6.368;2022-11-15T16:17:28;9.80;99.90
51839;DHT22;37886;53.174;6.368;2022-11-15T16:19:55;9.70;99.90
51839;DHT22;37886;53.174;6.368;2022-11-15T16:22:21;9.70;99.90
51839;DHT22;37886;53.174;6.368;2022-11-15T16:24:46;9.70;99.90
51839;DHT22;37886;53.174;6.368;2022-11-15T16:27:18;9.80;99.90
51839;DHT22;37886;53.174;6.368;2022-11-15T16:29:44;9.60;99.90
51839;DHT22;37886;53.174;6.368;2022-11-15T16:32:10;9.70;99.90
51839;DHT22;37886;53.174;6.368;2022-11-15T16:34:36;9.70;99.90
51839;DHT22;37886;53.174;6.368;2022-11-15T16:37:02;9.70;99.90
51839;DHT22;37886;53.174;6.368;2022-11-15T16:39:28;9.80;99.90
51839;DHT22;37886;53.174;6.368;2022-11-15T16:41:59;9.80;99.90
51839;DHT22;37886;53.174;6.368;2022-11-15T16:44:28;9.80;99.90
51839;DHT22;37886;53.174;6.368;2022-11-15T16:46:54;9.90;99.90
51839;DHT22;37886;53.174;6.368;2022-11-15T16:49:20;9.90;99.90
51839;DHT22;37886;53.174;6.368;2022-11-15T16:51:47;10.10;99.90
51839;DHT22;37886;53.174;6.368;2022-11-15T16:54:14;10.20;99.90
51839;DHT22;37886;53.174;6.368;2022-11-15T16:56:40;10.20;99.90
51839;DHT22;37886;53.174;6.368;2022-11-15T16:59:08;10.30;99.90
51839;DHT22;37886;53.174;6.368;2022-11-15T17:01:37;10.30;99.90
51839;DHT22;37886;53.174;6.368;2022-11-15T17:04:11;10.30;99.90
51839;DHT22;37886;53.174;6.368;2022-11-15T17:06:38;10.30;99.90
51839;DHT22;37886;53.174;6.368;2022-11-15T17:09:05;10.30;99.90
51839;DHT22;37886;53.174;6.368;2022-11-15T17:11:31;10.40;99.90
51839;DHT22;37886;53.174;6.368;2022-11-15T17:13:58;10.40;99.90
51839;DHT22;37886;53.174;6.368;2022-11-15T17:16:24;10.50;99.90
51839;DHT22;37886;53.174;6.368;2022-11-15T17:18:50;10.50;99.90
51839;DHT22;37886;53.174;6.368;2022-11-15T17:21:20;10.50;99.90
51839;DHT22;37886;53.174;6.368;2022-11-15T17:23:47;10.50;99.90
51839;DHT22;37886;53.174;6.368;2022-11-15T17:26:14;10.50;99.90
51839;DHT22;37886;53.174;6.368;2022-11-15T17:28:40;10.50;99.90
51839;DHT22;37886;53.174;6.368;2022-11-15T17:31:11;10.50;99.90
51839;DHT22;37886;53.174;6.368;2022-11-15T17:33:37;10.50;99.90
51839;DHT22;37886;53.174;6.368;2022-11-15T17:36:06;10.60;99.90
51839;DHT22;37886;53.174;6.368;2022-11-15T17:38:33;10.60;99.90
51839;DHT22;37886;53.174;6.368;2022-11-15T17:41:06;10.70;99.90
51839;DHT22;37886;53.174;6.368;2022-11-15T17:43:34;10.80;99.90
51839;DHT22;37886;53.174;6.368;2022-11-15T17:46:04;10.80;99.90
51839;DHT22;37886;53.174;6.368;2022-11-15T17:48:30;10.80;99.90
51839;DHT22;37886;53.174;6.368;2022-11-15T17:51:04;10.80;99.90
51839;DHT22;37886;53.174;6.368;2022-11-15T17:53:35;10.90;99.90
51839;DHT22;37886;53.174;6.368;2022-11-15T17:56:03;10.90;99.90
51839;DHT22;37886;53.174;6.368;2022-11-15T17:58:30;10.90;99.90
51839;DHT22;37886;53.174;6.368;2022-11-15T18:01:07;10.80;99.90
51839;DHT22;37886;53.174;6.368;2022-11-15T18:03:37;10.80;99.90
51839;DHT22;37886;53.174;6.368;2022-11-15T18:06:04;10.90;99.90
51839;DHT22;37886;53.174;6.368;2022-11-15T18:08:31;10.80;99.90